createdAt,value
2023-05-11T00:00:24.972Z,246.57
2023-05-11T00:01:24.932Z,247.01
2023-05-11T00:02:25.034Z,247.03
2023-05-11T00:03:25.074Z,247.37
2023-05-11T00:04:25.007Z,248.02
2023-05-11T00:05:25.000Z,245.78
2023-05-11T00:06:25.362Z,246.37
2023-05-11T00:07:25.029Z,246.57
2023-05-11T00:08:24.956Z,247.26
2023-05-11T00:09:25.026Z,247.65
2023-05-11T00:10:24.993Z,248.24
2023-05-11T00:11:24.984Z,247.71
2023-05-11T00:12:25.022Z,246.76
2023-05-11T00:13:24.982Z,248.39
2023-05-11T00:14:25.012Z,247.19
2023-05-11T00:15:25.004Z,246.65
2023-05-11T00:16:25.053Z,246.75
2023-05-11T00:17:25.020Z,246.87
2023-05-11T00:18:25.060Z,248.70
2023-05-11T00:19:25.009Z,247.78
2023-05-11T00:20:25.030Z,248.50
2023-05-11T00:21:25.054Z,247.22
2023-05-11T00:22:25.022Z,248.79
2023-05-11T00:23:25.133Z,248.08
2023-05-11T00:24:25.035Z,247.68
2023-05-11T00:25:25.055Z,247.40
2023-05-11T00:26:25.067Z,246.82
2023-05-11T00:27:25.052Z,246.84
2023-05-11T00:28:25.057Z,244.04
2023-05-11T00:29:25.005Z,246.38
2023-05-11T00:30:24.994Z,247.09
2023-05-11T00:31:25.098Z,248.39
2023-05-11T00:32:25.055Z,247.35
2023-05-11T00:33:25.034Z,246.85
2023-05-11T00:34:25.039Z,247.71
2023-05-11T00:35:25.054Z,246.37
2023-05-11T00:36:25.037Z,247.22
2023-05-11T00:37:25.979Z,245.72
2023-05-11T00:38:25.034Z,247.20
2023-05-11T00:39:25.069Z,247.23
2023-05-11T00:40:25.078Z,247.40
2023-05-11T00:41:25.047Z,247.65
2023-05-11T00:42:25.040Z,247.96
2023-05-11T00:43:25.000Z,247.63
2023-05-11T00:44:25.063Z,248.64
2023-05-11T00:45:25.019Z,249.24
2023-05-11T00:46:25.095Z,248.96
2023-05-11T00:47:25.052Z,247.67
2023-05-11T00:48:25.030Z,250.00
2023-05-11T00:49:25.030Z,247.98
2023-05-11T00:50:25.039Z,249.11
2023-05-11T00:51:25.009Z,247.68
2023-05-11T00:52:25.013Z,248.35
2023-05-11T00:53:25.246Z,247.28
2023-05-11T00:54:25.022Z,247.58
2023-05-11T00:55:25.033Z,247.93
2023-05-11T00:56:25.045Z,247.37
2023-05-11T00:57:25.065Z,247.19
2023-05-11T00:58:25.063Z,247.01
2023-05-11T00:59:25.064Z,248.10
2023-05-11T01:00:25.076Z,247.95
2023-05-11T01:01:25.127Z,247.89
2023-05-11T01:02:25.145Z,246.53
2023-05-11T01:03:25.119Z,247.64
2023-05-11T01:04:25.033Z,245.90
2023-05-11T01:05:25.057Z,247.04
2023-05-11T01:06:25.050Z,248.45
2023-05-11T01:07:25.055Z,248.56
2023-05-11T01:08:25.020Z,248.61
2023-05-11T01:09:25.030Z,247.47
2023-05-11T01:10:25.037Z,247.97
2023-05-11T01:11:25.110Z,247.26
2023-05-11T01:12:25.054Z,248.19
2023-05-11T01:13:25.060Z,248.63
2023-05-11T01:14:25.075Z,246.96
2023-05-11T01:15:25.069Z,246.43
2023-05-11T01:16:25.085Z,247.34
2023-05-11T01:17:25.071Z,248.09
2023-05-11T01:18:25.160Z,249.62
2023-05-11T01:19:25.923Z,248.19
2023-05-11T01:20:25.875Z,247.38
2023-05-11T01:21:25.056Z,247.81
2023-05-11T01:22:25.126Z,246.98
2023-05-11T01:23:25.372Z,247.18
2023-05-11T01:24:25.079Z,248.59
2023-05-11T01:25:25.064Z,247.21
2023-05-11T01:26:25.086Z,248.27
2023-05-11T01:27:25.098Z,247.52
2023-05-11T01:28:25.114Z,248.31
2023-05-11T01:29:25.112Z,248.39
2023-05-11T01:30:25.083Z,248.24
2023-05-11T01:31:25.131Z,248.01
2023-05-11T01:32:25.133Z,247.81
2023-05-11T01:33:25.104Z,246.74
2023-05-11T01:34:25.098Z,247.14
2023-05-11T01:35:25.062Z,246.46
2023-05-11T01:36:25.128Z,248.31
2023-05-11T01:37:25.121Z,249.22
2023-05-11T01:38:25.128Z,247.85
2023-05-11T01:39:25.141Z,247.68
2023-05-11T01:40:25.148Z,247.23
2023-05-11T01:41:25.149Z,247.46
2023-05-11T01:42:25.166Z,247.72
2023-05-11T01:43:25.168Z,247.38
2023-05-11T01:44:25.223Z,246.91
2023-05-11T01:45:25.155Z,247.22
2023-05-11T01:46:25.246Z,247.08
2023-05-11T01:47:25.227Z,247.79
2023-05-11T01:48:25.207Z,246.69
2023-05-11T01:49:25.251Z,247.78
2023-05-11T01:50:25.212Z,246.37
2023-05-11T01:51:25.159Z,247.82
2023-05-11T01:52:25.177Z,246.02
2023-05-11T01:53:25.242Z,247.22
2023-05-11T01:54:25.183Z,247.62
2023-05-11T01:55:25.236Z,246.23
2023-05-11T01:56:25.248Z,248.94
2023-05-11T01:57:25.246Z,245.83
2023-05-11T01:58:25.270Z,245.61
2023-05-11T01:59:25.193Z,246.29
2023-05-11T02:00:25.285Z,245.49
2023-05-11T02:01:25.307Z,246.90
2023-05-11T02:02:25.285Z,246.00
2023-05-11T02:03:25.429Z,246.79
2023-05-11T02:04:25.239Z,246.80
2023-05-11T02:05:25.272Z,246.75
2023-05-11T02:06:25.268Z,246.63
2023-05-11T02:07:25.272Z,247.60
2023-05-11T02:08:25.341Z,247.16
2023-05-11T02:09:25.297Z,247.29
2023-05-11T02:10:25.312Z,247.11
2023-05-11T02:11:25.342Z,245.14
2023-05-11T02:12:25.393Z,245.45
2023-05-11T02:13:25.371Z,245.06
2023-05-11T02:14:25.320Z,248.15
2023-05-11T02:15:25.356Z,246.66
2023-05-11T02:16:25.520Z,246.85
2023-05-11T02:17:25.443Z,247.37
2023-05-11T02:18:25.455Z,246.67
2023-05-11T02:19:25.414Z,245.39
2023-05-11T02:20:25.429Z,244.08
2023-05-11T02:21:25.474Z,246.32
2023-05-11T02:22:25.479Z,244.54
2023-05-11T02:23:25.440Z,248.19
2023-05-11T02:24:25.441Z,246.03
2023-05-11T02:25:25.454Z,246.34
2023-05-11T02:26:25.449Z,246.69
2023-05-11T02:27:25.496Z,246.46
2023-05-11T02:28:25.471Z,248.25
2023-05-11T02:29:25.598Z,248.55
2023-05-11T02:30:25.522Z,246.14
2023-05-11T02:31:25.576Z,246.85
2023-05-11T02:32:25.620Z,246.44
2023-05-11T02:33:25.558Z,246.31
2023-05-11T02:34:25.550Z,246.44
2023-05-11T02:35:25.545Z,247.18
2023-05-11T02:36:25.553Z,246.03
2023-05-11T02:37:25.577Z,248.77
2023-05-11T02:38:25.581Z,246.98
2023-05-11T02:39:25.653Z,247.74
2023-05-11T02:40:25.598Z,247.22
2023-05-11T02:41:25.591Z,248.77
2023-05-11T02:42:25.676Z,247.41
2023-05-11T02:43:25.724Z,246.92
2023-05-11T02:44:25.686Z,248.13
2023-05-11T02:45:25.636Z,248.15
2023-05-11T02:46:25.737Z,247.35
2023-05-11T02:47:25.726Z,247.40
2023-05-11T02:48:25.706Z,247.93
2023-05-11T02:49:25.721Z,249.96
2023-05-11T02:50:25.701Z,249.41
2023-05-11T02:51:25.734Z,249.64
2023-05-11T02:52:25.694Z,247.53
2023-05-11T02:53:25.761Z,247.86
2023-05-11T02:54:25.747Z,249.37
2023-05-11T02:55:25.761Z,249.32
2023-05-11T02:56:25.795Z,248.77
2023-05-11T02:57:25.807Z,246.64
2023-05-11T02:58:25.837Z,248.69
2023-05-11T02:59:25.828Z,246.74
2023-05-11T03:00:25.895Z,247.81
2023-05-11T03:01:26.854Z,249.06
2023-05-11T03:02:26.029Z,246.67
2023-05-11T03:03:25.917Z,248.39
2023-05-11T03:04:25.856Z,247.15
2023-05-11T03:05:25.854Z,244.79
2023-05-11T03:06:25.797Z,247.56
2023-05-11T03:07:25.833Z,247.78
2023-05-11T03:08:25.805Z,247.09
2023-05-11T03:09:25.858Z,246.90
2023-05-11T03:10:25.791Z,247.33
2023-05-11T03:11:25.796Z,247.53
2023-05-11T03:12:25.772Z,246.34
2023-05-11T03:13:25.775Z,247.07
2023-05-11T03:14:25.757Z,248.08
2023-05-11T03:15:25.720Z,246.13
2023-05-11T03:16:25.795Z,248.19
2023-05-11T03:17:25.787Z,247.13
2023-05-11T03:18:25.830Z,245.98
2023-05-11T03:19:25.754Z,246.31
2023-05-11T03:20:25.725Z,247.75
2023-05-11T03:21:25.695Z,246.17
2023-05-11T03:22:25.719Z,248.24
2023-05-11T03:23:25.733Z,247.22
2023-05-11T03:24:25.684Z,247.51
2023-05-11T03:25:25.691Z,248.36
2023-05-11T03:26:25.713Z,247.28
2023-05-11T03:27:25.700Z,246.50
2023-05-11T03:28:25.725Z,250.00
2023-05-11T03:29:25.681Z,248.98
2023-05-11T03:30:25.692Z,247.83
2023-05-11T03:31:26.495Z,248.00
2023-05-11T03:32:25.738Z,248.17
2023-05-11T03:33:25.637Z,246.17
2023-05-11T03:34:25.623Z,247.31
2023-05-11T03:35:25.628Z,248.76
2023-05-11T03:36:25.630Z,246.20
2023-05-11T03:37:25.622Z,246.35
2023-05-11T03:38:25.597Z,246.84
2023-05-11T03:39:25.654Z,246.54
2023-05-11T03:40:25.600Z,246.06
2023-05-11T03:41:25.600Z,246.98
2023-05-11T03:42:25.562Z,247.20
2023-05-11T03:43:25.571Z,248.97
2023-05-11T03:44:25.573Z,248.58
2023-05-11T03:45:25.586Z,248.62
2023-05-11T03:46:25.567Z,245.46
2023-05-11T03:47:25.564Z,246.28
2023-05-11T03:48:25.522Z,247.49
2023-05-11T03:49:25.558Z,246.29
2023-05-11T03:50:25.521Z,245.35
2023-05-11T03:51:25.541Z,246.13
2023-05-11T03:52:25.541Z,246.17
2023-05-11T03:53:25.548Z,244.78
2023-05-11T03:54:25.557Z,246.89
2023-05-11T03:55:25.516Z,246.55
2023-05-11T03:56:25.496Z,246.06
2023-05-11T03:57:25.680Z,245.94
2023-05-11T03:58:25.474Z,247.07
2023-05-11T03:59:25.514Z,247.13
2023-05-11T04:00:25.435Z,246.35
2023-05-11T04:01:25.489Z,246.88
2023-05-11T04:02:25.614Z,244.93
2023-05-11T04:03:25.617Z,246.91
2023-05-11T04:04:25.425Z,240.98
2023-05-11T04:05:25.417Z,239.70
2023-05-11T04:06:25.443Z,236.32
2023-05-11T04:07:25.409Z,234.82
2023-05-11T04:08:25.419Z,228.08
2023-05-11T04:09:25.423Z,224.60
2023-05-11T04:10:25.412Z,215.86
2023-05-11T04:11:25.376Z,214.52
2023-05-11T04:12:25.393Z,209.87
2023-05-11T04:13:26.348Z,205.03
2023-05-11T04:14:25.379Z,200.29
2023-05-11T04:15:25.327Z,194.48
2023-05-11T04:16:25.364Z,191.53
2023-05-11T04:17:25.427Z,185.52
2023-05-11T04:18:25.335Z,182.28
2023-05-11T04:19:25.337Z,177.27
2023-05-11T04:20:25.346Z,173.12
2023-05-11T04:21:25.329Z,169.36
2023-05-11T04:22:25.328Z,166.05
2023-05-11T04:23:25.348Z,162.56
2023-05-11T04:24:25.399Z,161.60
2023-05-11T04:25:25.495Z,154.49
2023-05-11T04:26:25.486Z,151.78
2023-05-11T04:27:25.602Z,147.64
2023-05-11T04:28:25.656Z,143.64
2023-05-11T04:29:25.702Z,142.44
2023-05-11T04:30:25.799Z,137.25
2023-05-11T04:31:25.840Z,134.96
2023-05-11T04:32:25.893Z,135.94
2023-05-11T04:33:25.920Z,136.33
2023-05-11T04:34:25.960Z,135.08
2023-05-11T04:35:26.017Z,135.78
2023-05-11T04:36:26.042Z,135.54
2023-05-11T04:37:26.156Z,137.19
2023-05-11T04:38:26.159Z,136.52
2023-05-11T04:39:26.171Z,137.89
2023-05-11T04:40:26.216Z,142.93
2023-05-11T04:41:26.270Z,142.61
2023-05-11T04:42:26.271Z,144.59
2023-05-11T04:43:26.309Z,146.53
2023-05-11T04:44:26.332Z,145.24
2023-05-11T04:45:26.360Z,147.93
2023-05-11T04:46:26.429Z,147.28
2023-05-11T04:47:26.424Z,146.11
2023-05-11T04:48:26.543Z,149.40
2023-05-11T04:49:26.450Z,147.50
2023-05-11T04:50:26.500Z,150.70
2023-05-11T04:51:27.464Z,153.10
2023-05-11T04:52:26.548Z,153.87
2023-05-11T04:53:26.548Z,155.75
2023-05-11T04:54:26.602Z,155.29
2023-05-11T04:55:26.595Z,155.63
2023-05-11T04:56:26.593Z,157.37
2023-05-11T04:57:26.676Z,159.21
2023-05-11T04:58:26.714Z,158.17
2023-05-11T04:59:26.705Z,160.77
2023-05-11T05:00:26.693Z,160.51
2023-05-11T05:01:26.731Z,159.28
2023-05-11T05:02:26.817Z,162.23
2023-05-11T05:03:26.769Z,165.31
2023-05-11T05:04:26.832Z,165.34
2023-05-11T05:05:26.841Z,160.13
2023-05-11T05:06:26.804Z,159.78
2023-05-11T05:07:26.854Z,157.10
2023-05-11T05:08:26.847Z,157.74
2023-05-11T05:09:26.911Z,155.41
2023-05-11T05:10:26.925Z,156.11
2023-05-11T05:11:26.935Z,154.70
2023-05-11T05:12:26.992Z,157.82
2023-05-11T05:13:26.994Z,157.59
2023-05-11T05:14:28.024Z,159.00
2023-05-11T05:15:27.008Z,158.74
2023-05-11T05:16:27.098Z,158.28
2023-05-11T05:17:27.099Z,159.37
2023-05-11T05:18:27.170Z,158.73
2023-05-11T05:19:27.103Z,160.41
2023-05-11T05:20:27.143Z,158.30
2023-05-11T05:21:29.142Z,162.42
2023-05-11T05:22:27.960Z,158.48
2023-05-11T05:23:27.210Z,162.32
2023-05-11T05:24:27.239Z,161.69
2023-05-11T05:25:27.286Z,162.32
2023-05-11T05:26:27.289Z,161.96
2023-05-11T05:27:27.303Z,161.27
2023-05-11T05:28:27.297Z,160.77
2023-05-11T05:29:27.329Z,161.13
2023-05-11T05:30:27.337Z,162.07
2023-05-11T05:31:27.512Z,162.02
2023-05-11T05:32:27.484Z,161.52
2023-05-11T05:33:27.405Z,163.42
2023-05-11T05:34:27.415Z,165.65
2023-05-11T05:35:27.475Z,164.78
2023-05-11T05:36:27.502Z,168.98
2023-05-11T05:37:27.516Z,170.18
2023-05-11T05:38:27.495Z,173.63
2023-05-11T05:39:27.545Z,172.21
2023-05-11T05:40:27.578Z,171.47
2023-05-11T05:41:27.620Z,168.82
2023-05-11T05:42:27.600Z,165.57
2023-05-11T05:43:27.756Z,164.59
2023-05-11T05:44:27.644Z,164.41
2023-05-11T05:45:28.048Z,161.25
2023-05-11T05:46:27.790Z,155.95
2023-05-11T05:47:27.779Z,147.58
2023-05-11T05:48:27.771Z,147.41
2023-05-11T05:49:27.796Z,148.94
2023-05-11T05:50:28.030Z,148.48
2023-05-11T05:51:27.828Z,145.61
2023-05-11T05:52:27.838Z,147.97
2023-05-11T05:53:27.887Z,144.79
2023-05-11T05:54:27.843Z,144.49
2023-05-11T05:55:27.891Z,143.24
2023-05-11T05:56:28.517Z,144.47
2023-05-11T05:57:27.910Z,142.20
2023-05-11T05:58:27.954Z,141.93
2023-05-11T05:59:27.951Z,141.25
2023-05-11T06:00:27.973Z,139.25
2023-05-11T06:01:27.981Z,139.14
2023-05-11T06:02:28.144Z,137.45
2023-05-11T06:03:29.559Z,138.05
2023-05-11T06:04:28.000Z,139.61
2023-05-11T06:05:28.095Z,135.09
2023-05-11T06:06:28.087Z,137.85
2023-05-11T06:07:28.104Z,136.99
2023-05-11T06:08:28.126Z,136.98
2023-05-11T06:09:28.079Z,136.08
2023-05-11T06:10:28.117Z,135.64
2023-05-11T06:11:28.104Z,136.37
2023-05-11T06:12:28.074Z,136.15
2023-05-11T06:13:28.120Z,138.10
2023-05-11T06:14:28.116Z,138.10
2023-05-11T06:15:28.155Z,141.01
2023-05-11T06:16:28.294Z,138.60
2023-05-11T06:17:28.222Z,136.56
2023-05-11T06:18:28.171Z,137.18
2023-05-11T06:19:28.127Z,137.37
2023-05-11T06:20:28.531Z,134.80
2023-05-11T06:21:28.171Z,135.14
2023-05-11T06:22:28.111Z,134.27
2023-05-11T06:23:28.204Z,135.70
2023-05-11T06:24:28.187Z,135.83
2023-05-11T06:25:28.341Z,135.62
2023-05-11T06:26:28.207Z,137.42
2023-05-11T06:27:28.251Z,137.82
2023-05-11T06:28:28.316Z,132.85
2023-05-11T06:29:28.325Z,137.85
2023-05-11T06:30:28.384Z,136.81
2023-05-11T06:31:28.489Z,137.65
2023-05-11T06:32:28.494Z,142.01
2023-05-11T06:33:29.011Z,139.88
2023-05-11T06:34:28.563Z,141.93
2023-05-11T06:35:29.036Z,141.87
2023-05-11T06:36:29.539Z,139.39
2023-05-11T06:37:29.057Z,133.21
2023-05-11T06:38:29.063Z,65.12
2023-05-11T06:39:29.054Z,89.85
2023-05-11T06:40:28.854Z,88.20
2023-05-11T06:41:28.871Z,97.23
2023-05-11T06:42:28.855Z,109.37
2023-05-11T06:43:28.861Z,113.12
2023-05-11T06:44:28.905Z,110.86
2023-05-11T06:45:28.982Z,113.70
2023-05-11T06:46:29.163Z,113.29
2023-05-11T06:47:28.981Z,118.21
2023-05-11T06:48:29.019Z,118.17
2023-05-11T06:49:29.004Z,117.74
2023-05-11T06:50:29.215Z,118.27
2023-05-11T06:51:28.980Z,122.18
2023-05-11T06:52:28.985Z,122.44
2023-05-11T06:53:29.581Z,121.49
2023-05-11T06:54:29.015Z,123.94
2023-05-11T06:55:28.982Z,127.93
2023-05-11T06:56:29.027Z,125.15
2023-05-11T06:57:29.036Z,129.18
2023-05-11T06:58:29.085Z,131.01
2023-05-11T06:59:29.120Z,127.34
2023-05-11T07:00:29.209Z,131.48
2023-05-11T07:01:29.324Z,130.73
2023-05-11T07:02:29.303Z,127.31
2023-05-11T07:03:29.405Z,120.85
2023-05-11T07:04:29.360Z,125.99
2023-05-11T07:05:29.466Z,128.46
2023-05-11T07:06:29.465Z,125.84
2023-05-11T07:07:29.540Z,132.98
2023-05-11T07:08:29.547Z,133.40
2023-05-11T07:09:29.672Z,129.21
2023-05-11T07:10:29.684Z,129.36
2023-05-11T07:11:29.786Z,130.99
2023-05-11T07:12:29.874Z,125.87
2023-05-11T07:13:29.863Z,127.16
2023-05-11T07:14:29.910Z,127.26
2023-05-11T07:15:29.919Z,129.89
2023-05-11T07:16:30.047Z,136.02
2023-05-11T07:17:30.083Z,136.27
2023-05-11T07:18:30.166Z,135.08
2023-05-11T07:19:30.205Z,138.87
2023-05-11T07:20:30.169Z,141.72
2023-05-11T07:21:30.248Z,140.56
2023-05-11T07:22:30.330Z,137.51
2023-05-11T07:23:30.441Z,133.28
2023-05-11T07:24:30.441Z,132.97
2023-05-11T07:25:30.484Z,131.68
2023-05-11T07:26:30.577Z,132.92
2023-05-11T07:27:30.696Z,132.70
2023-05-11T07:28:30.605Z,130.63
2023-05-11T07:29:31.041Z,129.13
2023-05-11T07:30:30.726Z,130.55
2023-05-11T07:31:30.813Z,129.49
2023-05-11T07:32:30.876Z,124.55
2023-05-11T07:33:31.063Z,126.96
2023-05-11T07:34:30.908Z,122.05
2023-05-11T07:35:30.969Z,124.37
2023-05-11T07:36:31.048Z,89.33
2023-05-11T07:37:31.055Z,92.38
2023-05-11T07:38:31.549Z,81.43
2023-05-11T07:39:31.044Z,68.75
2023-05-11T07:40:31.580Z,81.97
2023-05-11T07:41:31.098Z,77.17
2023-05-11T07:42:31.196Z,52.03
2023-05-11T07:43:31.173Z,33.22
2023-05-11T07:44:31.198Z,29.34
2023-05-11T07:45:31.586Z,34.62
2023-05-11T07:46:31.363Z,48.97
2023-05-11T07:47:31.628Z,52.57
2023-05-11T07:48:31.388Z,43.00
2023-05-11T07:49:42.819Z,34.50
2023-05-11T07:50:32.571Z,26.42
2023-05-11T07:51:31.404Z,32.10
2023-05-11T07:52:31.452Z,31.27
2023-05-11T07:53:31.438Z,36.83
2023-05-11T07:54:31.407Z,36.32
2023-05-11T07:55:31.416Z,34.05
2023-05-11T07:56:31.412Z,21.30
2023-05-11T07:57:31.498Z,36.13
2023-05-11T07:58:31.405Z,28.16
2023-05-11T07:59:31.359Z,33.26
2023-05-11T08:00:31.412Z,27.89
2023-05-11T08:01:31.360Z,38.77
2023-05-11T08:02:31.455Z,48.08
2023-05-11T08:03:31.618Z,56.41
2023-05-11T08:04:31.335Z,61.89
2023-05-11T08:05:31.406Z,70.43
2023-05-11T08:06:31.349Z,74.74
2023-05-11T08:07:32.069Z,77.93
2023-05-11T08:08:31.466Z,78.78
2023-05-11T08:09:31.533Z,81.67
2023-05-11T08:10:31.514Z,82.63
2023-05-11T08:11:31.502Z,88.98
2023-05-11T08:12:31.550Z,91.81
2023-05-11T08:13:31.595Z,94.30
2023-05-11T08:14:31.582Z,96.03
2023-05-11T08:15:31.611Z,92.31
2023-05-11T08:16:31.647Z,94.68
2023-05-11T08:17:31.667Z,99.04
2023-05-11T08:18:31.651Z,102.17
2023-05-11T08:19:31.593Z,104.44
2023-05-11T08:20:32.095Z,102.35
2023-05-11T08:21:31.689Z,102.14
2023-05-11T08:22:31.690Z,106.42
2023-05-11T08:23:31.714Z,112.06
2023-05-11T08:24:31.820Z,112.90
2023-05-11T08:25:32.050Z,113.67
2023-05-11T08:26:31.938Z,116.07
2023-05-11T08:27:32.110Z,86.78
2023-05-11T08:28:32.005Z,86.73
2023-05-11T08:29:31.976Z,66.67
2023-05-11T08:30:32.015Z,66.55
2023-05-11T08:31:32.143Z,65.23
2023-05-11T08:32:36.224Z,44.75
2023-05-11T08:33:38.074Z,35.62
2023-05-11T08:34:33.227Z,26.45
2023-05-11T08:35:32.091Z,37.66
2023-05-11T08:36:32.117Z,30.41
2023-05-11T08:37:32.079Z,34.57
2023-05-11T08:38:32.109Z,39.86
2023-05-11T08:39:46.161Z,42.04
2023-05-11T08:40:33.066Z,41.52
2023-05-11T08:41:32.042Z,40.83
2023-05-11T08:42:32.055Z,42.85
2023-05-11T08:43:31.993Z,37.17
2023-05-11T08:44:32.069Z,54.22
2023-05-11T08:45:32.048Z,70.71
2023-05-11T08:46:32.086Z,75.34
2023-05-11T08:47:32.068Z,83.48
2023-05-11T08:48:32.178Z,89.38
2023-05-11T08:49:32.007Z,94.78
2023-05-11T08:50:32.013Z,95.72
2023-05-11T08:51:31.985Z,102.02
2023-05-11T08:52:32.005Z,104.93
2023-05-11T08:53:32.606Z,108.27
2023-05-11T08:54:31.980Z,111.05
2023-05-11T08:55:32.140Z,110.48
2023-05-11T08:56:31.926Z,113.75
2023-05-11T08:57:31.946Z,114.19
2023-05-11T08:58:31.989Z,119.04
2023-05-11T08:59:32.125Z,120.17
2023-05-11T09:00:31.968Z,122.83
2023-05-11T09:01:32.032Z,126.20
2023-05-11T09:02:32.122Z,128.11
2023-05-11T09:03:32.091Z,129.71
2023-05-11T09:04:32.197Z,133.85
2023-05-11T09:05:32.265Z,135.55
2023-05-11T09:06:32.285Z,142.93
2023-05-11T09:07:32.309Z,145.66
2023-05-11T09:08:32.439Z,147.63
2023-05-11T09:09:32.644Z,149.92
2023-05-11T09:10:32.464Z,150.92
2023-05-11T09:11:32.501Z,155.17
2023-05-11T09:12:32.549Z,156.70
2023-05-11T09:13:32.620Z,158.32
2023-05-11T09:14:32.671Z,160.07
2023-05-11T09:15:37.001Z,160.88
2023-05-11T09:16:37.241Z,160.99
2023-05-11T09:17:32.700Z,161.12
2023-05-11T09:18:32.710Z,161.62
2023-05-11T09:19:32.663Z,161.81
2023-05-11T09:20:32.592Z,163.70
2023-05-11T09:21:32.679Z,170.05
2023-05-11T09:22:34.536Z,174.50
2023-05-11T09:23:32.621Z,174.66
2023-05-11T09:24:32.580Z,175.16
2023-05-11T09:25:32.651Z,173.57
2023-05-11T09:26:32.800Z,168.97
2023-05-11T09:27:32.631Z,172.02
2023-05-11T09:29:32.561Z,169.42
2023-05-11T09:30:33.268Z,169.89
2023-05-11T09:31:32.860Z,171.98
2023-05-11T09:32:32.567Z,173.01
2023-05-11T09:33:32.589Z,171.75
2023-05-11T09:34:32.558Z,175.18
2023-05-11T09:35:32.573Z,176.39
2023-05-11T09:36:32.529Z,177.77
2023-05-11T09:37:32.561Z,155.67
2023-05-11T09:38:32.629Z,139.29
2023-05-11T09:41:35.768Z,89.41
2023-05-11T09:42:32.592Z,107.24
2023-05-11T09:43:32.478Z,113.88
2023-05-11T09:44:32.538Z,119.02
2023-05-11T09:45:32.481Z,120.56
2023-05-11T09:46:32.492Z,122.06
2023-05-11T09:47:32.481Z,124.59
2023-05-11T09:48:32.478Z,125.60
2023-05-11T09:49:32.470Z,124.98
2023-05-11T09:50:32.418Z,136.60
2023-05-11T09:51:32.420Z,138.33
2023-05-11T09:52:32.425Z,143.56
2023-05-11T09:53:32.413Z,146.57
2023-05-11T09:54:32.349Z,151.82
2023-05-11T09:55:32.414Z,154.55
2023-05-11T09:56:32.385Z,160.20
2023-05-11T09:57:32.371Z,162.50
2023-05-11T09:58:32.367Z,165.41
2023-05-11T09:59:32.365Z,164.20
2023-05-11T10:00:32.398Z,169.69
2023-05-11T10:01:32.415Z,171.68
2023-05-11T10:02:32.452Z,169.26
2023-05-11T10:03:32.647Z,172.57
2023-05-11T10:04:32.811Z,171.11
2023-05-11T10:05:32.323Z,177.97
2023-05-11T10:06:32.300Z,174.09
2023-05-11T10:07:32.352Z,175.74
2023-05-11T10:08:32.319Z,177.20
2023-05-11T10:09:32.270Z,180.32
2023-05-11T10:10:32.285Z,177.91
2023-05-11T10:11:32.305Z,178.49
2023-05-11T10:12:32.347Z,177.19
2023-05-11T10:13:32.259Z,178.18
2023-05-11T10:14:32.281Z,176.67
2023-05-11T10:15:32.288Z,176.22
2023-05-11T10:16:32.297Z,180.39
2023-05-11T10:17:32.258Z,176.91
2023-05-11T10:18:32.236Z,149.19
2023-05-11T10:19:32.184Z,146.80
2023-05-11T10:20:32.203Z,130.99
2023-05-11T10:21:32.229Z,110.58
2023-05-11T10:22:32.294Z,126.58
2023-05-11T10:23:32.218Z,106.62
2023-05-11T10:24:32.203Z,85.06
2023-05-11T10:25:32.167Z,103.77
2023-05-11T10:26:32.182Z,111.90
2023-05-11T10:27:32.216Z,117.38
2023-05-11T10:28:32.145Z,125.57
2023-05-11T10:29:32.172Z,133.09
2023-05-11T10:30:32.168Z,133.72
2023-05-11T10:31:32.299Z,144.73
2023-05-11T10:32:32.160Z,130.94
2023-05-11T10:33:32.143Z,130.63
2023-05-11T10:34:32.147Z,122.94
2023-05-11T10:35:32.104Z,127.34
2023-05-11T10:36:32.156Z,117.45
2023-05-11T10:37:32.099Z,116.58
2023-05-11T10:38:32.124Z,118.39
2023-05-11T10:39:32.077Z,116.71
2023-05-11T10:40:32.087Z,118.72
2023-05-11T10:41:32.079Z,114.46
2023-05-11T10:42:32.100Z,118.15
2023-05-11T10:43:32.093Z,116.49
2023-05-11T10:44:32.079Z,110.21
2023-05-11T10:45:32.128Z,110.79
2023-05-11T10:46:32.126Z,112.74
2023-05-11T10:47:32.036Z,106.73
2023-05-11T10:48:32.046Z,97.32
2023-05-11T10:49:32.040Z,109.72
2023-05-11T10:50:32.054Z,108.34
2023-05-11T10:51:32.157Z,118.00
2023-05-11T10:52:32.025Z,120.30
2023-05-11T10:53:32.625Z,119.70
2023-05-11T10:54:32.022Z,126.05
2023-05-11T10:55:31.996Z,140.78
2023-05-11T10:56:32.004Z,152.56
2023-05-11T10:57:33.688Z,159.40
2023-05-11T10:58:31.992Z,174.59
2023-05-11T10:59:31.972Z,172.10
2023-05-11T11:00:31.987Z,171.14
2023-05-11T11:01:31.984Z,171.93
2023-05-11T11:02:31.955Z,171.95
2023-05-11T11:03:31.925Z,172.03
2023-05-11T11:04:31.953Z,170.81
2023-05-11T11:05:31.988Z,170.49
2023-05-11T11:06:31.965Z,171.65
2023-05-11T11:07:31.911Z,177.05
2023-05-11T11:08:31.929Z,174.90
2023-05-11T11:09:31.979Z,164.22
2023-05-11T11:10:31.936Z,156.17
2023-05-11T11:11:31.891Z,150.27
2023-05-11T11:12:31.889Z,160.97
2023-05-11T11:13:31.858Z,183.81
2023-05-11T11:14:31.913Z,184.89
2023-05-11T11:15:31.856Z,184.27
2023-05-11T11:16:31.899Z,182.13
2023-05-11T11:17:32.377Z,180.58
2023-05-11T11:18:31.995Z,172.09
2023-05-11T11:19:32.666Z,167.01
2023-05-11T11:20:31.950Z,169.73
2023-05-11T11:21:32.178Z,176.88
2023-05-11T11:22:32.176Z,172.86
2023-05-11T11:23:32.173Z,168.11
2023-05-11T11:24:32.179Z,159.59
2023-05-11T11:25:32.332Z,155.99
2023-05-11T11:26:32.286Z,151.55
2023-05-11T11:27:32.360Z,147.95
2023-05-11T11:28:32.524Z,144.34
2023-05-11T11:29:32.559Z,145.36
2023-05-11T11:30:32.613Z,140.87
2023-05-11T11:31:32.802Z,138.58
2023-05-11T11:32:32.693Z,132.20
2023-05-11T11:33:32.773Z,130.80
2023-05-11T11:34:32.823Z,126.48
2023-05-11T11:35:32.837Z,124.73
2023-05-11T11:36:32.907Z,121.56
2023-05-11T11:37:33.643Z,120.44
2023-05-11T11:38:33.010Z,116.60
2023-05-11T11:39:33.016Z,116.68
2023-05-11T11:40:39.600Z,114.45
2023-05-11T11:41:34.038Z,114.49
2023-05-11T11:42:33.025Z,113.81
2023-05-11T11:43:33.022Z,114.82
2023-05-11T11:44:33.016Z,113.28
2023-05-11T11:45:33.010Z,110.14
2023-05-11T11:46:33.072Z,107.62
2023-05-11T11:47:32.967Z,109.48
2023-05-11T11:48:33.001Z,109.01
2023-05-11T11:49:33.009Z,109.46
2023-05-11T11:50:33.073Z,107.71
2023-05-11T11:51:33.124Z,105.23
2023-05-11T11:52:33.189Z,106.69
2023-05-11T11:53:33.231Z,108.02
2023-05-11T11:54:33.349Z,113.22
2023-05-11T11:55:33.316Z,113.54
2023-05-11T11:56:33.685Z,111.44
2023-05-11T11:57:33.432Z,118.91
2023-05-11T11:58:33.481Z,117.50
2023-05-11T11:59:33.490Z,118.22
2023-05-11T12:00:33.568Z,118.78
2023-05-11T12:01:33.559Z,113.79
2023-05-11T12:02:33.684Z,118.32
2023-05-11T12:03:33.738Z,110.53
2023-05-11T12:04:33.712Z,109.85
2023-05-11T12:05:33.683Z,106.31
2023-05-11T12:06:33.733Z,106.19
2023-05-11T12:07:33.723Z,106.88
2023-05-11T12:08:33.823Z,101.87
2023-05-11T12:09:33.909Z,104.96
2023-05-11T12:10:33.820Z,100.66
2023-05-11T12:11:33.889Z,98.48
2023-05-11T12:12:33.870Z,100.83
2023-05-11T12:13:33.885Z,100.74
2023-05-11T12:14:33.897Z,94.68
2023-05-11T12:15:33.914Z,96.84
2023-05-11T12:16:34.016Z,99.25
2023-05-11T12:17:33.985Z,95.64
2023-05-11T12:18:34.069Z,96.09
2023-05-11T12:19:33.990Z,95.29
2023-05-11T12:20:34.043Z,100.21
2023-05-11T12:21:34.048Z,102.92
2023-05-11T12:22:34.053Z,96.87
2023-05-11T12:23:34.068Z,100.44
2023-05-11T12:24:34.103Z,95.81
2023-05-11T12:25:34.129Z,94.22
2023-05-11T12:26:34.149Z,91.83
2023-05-11T12:27:34.193Z,92.72
2023-05-11T12:28:34.256Z,90.87
2023-05-11T12:29:34.323Z,89.99
2023-05-11T12:30:34.369Z,87.19
2023-05-11T12:31:34.462Z,87.48
2023-05-11T12:32:34.470Z,85.95
2023-05-11T12:33:34.539Z,82.15
2023-05-11T12:34:34.628Z,78.88